sensor_id;sensor_type;location;lat;lon;timestamp;P1;durP1;ratioP1;P2;durP2;ratioP2
50779;SDS011;36748;37.428;-121.972;2023-03-31T00:00:46;0.65;;;0.30;;
50779;SDS011;36748;37.428;-121.972;2023-03-31T00:03:17;0.65;;;0.30;;
50779;SDS011;36748;37.428;-121.972;2023-03-31T00:05:46;1.05;;;0.40;;
50779;SDS011;36748;37.428;-121.972;2023-03-31T00:08:13;0.57;;;0.30;;
50779;SDS011;36748;37.428;-121.972;2023-03-31T00:10:43;1.30;;;0.50;;
50779;SDS011;36748;37.428;-121.972;2023-03-31T00:13:11;0.57;;;0.40;;
50779;SDS011;36748;37.428;-121.972;2023-03-31T00:15:37;0.40;;;0.30;;
50779;SDS011;36748;37.428;-121.972;2023-03-31T00:18:03;0.43;;;0.25;;
50779;SDS011;36748;37.428;-121.972;2023-03-31T00:20:30;0.43;;;0.20;;
50779;SDS011;36748;37.428;-121.972;2023-03-31T00:23:02;1.10;;;0.40;;
50779;SDS011;36748;37.428;-121.972;2023-03-31T00:25:35;1.73;;;0.20;;
50779;SDS011;36748;37.428;-121.972;2023-03-31T00:28:05;1.15;;;0.38;;
50779;SDS011;36748;37.428;-121.972;2023-03-31T00:30:31;1.45;;;0.50;;
50779;SDS011;36748;37.428;-121.972;2023-03-31T00:32:57;1.88;;;0.50;;
50779;SDS011;36748;37.428;-121.972;2023-03-31T00:35:24;0.50;;;0.32;;
50779;SDS011;36748;37.428;-121.972;2023-03-31T00:37:50;0.35;;;0.30;;
50779;SDS011;36748;37.428;-121.972;2023-03-31T00:40:18;2.03;;;0.50;;
50779;SDS011;36748;37.428;-121.972;2023-03-31T00:42:45;1.55;;;0.50;;
50779;SDS011;36748;37.428;-121.972;2023-03-31T00:47:45;1.77;;;0.40;;
50779;SDS011;36748;37.428;-121.972;2023-03-31T00:50:14;1.37;;;0.30;;
50779;SDS011;36748;37.428;-121.972;2023-03-31T00:52:46;0.90;;;0.50;;
50779;SDS011;36748;37.428;-121.972;2023-03-31T00:55:16;6.28;;;0.88;;
50779;SDS011;36748;37.428;-121.972;2023-03-31T00:57:44;19.33;;;3.45;;
50779;SDS011;36748;37.428;-121.972;2023-03-31T01:00:12;118.32;;;13.05;;
50779;SDS011;36748;37.428;-121.972;2023-03-31T01:02:44;74.72;;;7.18;;
50779;SDS011;36748;37.428;-121.972;2023-03-31T01:05:20;185.02;;;36.30;;
50779;SDS011;36748;37.428;-121.972;2023-03-31T01:07:50;363.10;;;73.55;;
50779;SDS011;36748;37.428;-121.972;2023-03-31T01:10:17;427.48;;;83.72;;
50779;SDS011;36748;37.428;-121.972;2023-03-31T01:12:45;641.00;;;185.57;;
50779;SDS011;36748;37.428;-121.972;2023-03-31T01:15:12;510.65;;;143.52;;
50779;SDS011;36748;37.428;-121.972;2023-03-31T01:17:39;297.08;;;73.88;;
50779;SDS011;36748;37.428;-121.972;2023-03-31T01:23:04;248.18;;;59.95;;
50779;SDS011;36748;37.428;-121.972;2023-03-31T01:43:43;188.40;;;53.25;;
50779;SDS011;36748;37.428;-121.972;2023-03-31T01:51:34;167.85;;;48.22;;
50779;SDS011;36748;37.428;-121.972;2023-03-31T01:54:33;159.10;;;46.38;;
50779;SDS011;36748;37.428;-121.972;2023-03-31T01:57:35;166.02;;;46.45;;
50779;SDS011;36748;37.428;-121.972;2023-03-31T02:05:56;152.38;;;44.30;;
50779;SDS011;36748;37.428;-121.972;2023-03-31T02:08:28;127.22;;;40.80;;
50779;SDS011;36748;37.428;-121.972;2023-03-31T02:10:58;128.02;;;39.95;;
50779;SDS011;36748;37.428;-121.972;2023-03-31T02:13:25;136.35;;;40.30;;
50779;SDS011;36748;37.428;-121.972;2023-03-31T02:15:57;122.82;;;40.42;;
50779;SDS011;36748;37.428;-121.972;2023-03-31T02:18:27;124.95;;;38.60;;
50779;SDS011;36748;37.428;-121.972;2023-03-31T02:20:57;125.80;;;40.40;;
50779;SDS011;36748;37.428;-121.972;2023-03-31T02:23:25;120.65;;;37.20;;
50779;SDS011;36748;37.428;-121.972;2023-03-31T02:26:00;112.88;;;37.53;;
50779;SDS011;36748;37.428;-121.972;2023-03-31T02:28:36;113.40;;;36.10;;
50779;SDS011;36748;37.428;-121.972;2023-03-31T02:33:47;117.63;;;35.33;;
50779;SDS011;36748;37.428;-121.972;2023-03-31T02:36:14;105.38;;;35.10;;
50779;SDS011;36748;37.428;-121.972;2023-03-31T02:38:42;106.93;;;34.08;;
50779;SDS011;36748;37.428;-121.972;2023-03-31T02:41:29;106.05;;;33.63;;
50779;SDS011;36748;37.428;-121.972;2023-03-31T02:43:56;101.32;;;33.08;;
50779;SDS011;36748;37.428;-121.972;2023-03-31T02:46:22;109.03;;;33.03;;
50779;SDS011;36748;37.428;-121.972;2023-03-31T02:48:49;102.57;;;33.00;;
50779;SDS011;36748;37.428;-121.972;2023-03-31T03:13:48;77.07;;;27.40;;
50779;SDS011;36748;37.428;-121.972;2023-03-31T03:15:57;78.75;;;26.90;;
50779;SDS011;36748;37.428;-121.972;2023-03-31T03:18:28;78.80;;;26.15;;
50779;SDS011;36748;37.428;-121.972;2023-03-31T03:20:55;77.18;;;26.58;;
50779;SDS011;36748;37.428;-121.972;2023-03-31T03:23:21;70.65;;;25.73;;
50779;SDS011;36748;37.428;-121.972;2023-03-31T03:25:48;74.82;;;25.88;;
50779;SDS011;36748;37.428;-121.972;2023-03-31T03:28:15;68.40;;;23.63;;
50779;SDS011;36748;37.428;-121.972;2023-03-31T03:30:43;68.82;;;23.85;;
50779;SDS011;36748;37.428;-121.972;2023-03-31T03:33:10;75.28;;;25.48;;
50779;SDS011;36748;37.428;-121.972;2023-03-31T03:35:41;65.22;;;24.63;;
50779;SDS011;36748;37.428;-121.972;2023-03-31T03:38:08;70.28;;;24.02;;
50779;SDS011;36748;37.428;-121.972;2023-03-31T03:40:34;63.45;;;22.65;;
50779;SDS011;36748;37.428;-121.972;2023-03-31T03:43:00;62.83;;;23.00;;
50779;SDS011;36748;37.428;-121.972;2023-03-31T03:45:26;63.30;;;21.88;;
50779;SDS011;36748;37.428;-121.972;2023-03-31T03:47:53;70.45;;;22.40;;
50779;SDS011;36748;37.428;-121.972;2023-03-31T03:50:22;60.95;;;21.48;;
50779;SDS011;36748;37.428;-121.972;2023-03-31T03:52:48;58.38;;;21.08;;
50779;SDS011;36748;37.428;-121.972;2023-03-31T03:55:14;55.88;;;21.30;;
50779;SDS011;36748;37.428;-121.972;2023-03-31T03:57:42;61.30;;;20.15;;
50779;SDS011;36748;37.428;-121.972;2023-03-31T04:00:11;56.95;;;20.48;;
50779;SDS011;36748;37.428;-121.972;2023-03-31T04:02:38;52.00;;;19.33;;
50779;SDS011;36748;37.428;-121.972;2023-03-31T04:05:06;52.47;;;19.80;;
50779;SDS011;36748;37.428;-121.972;2023-03-31T04:07:32;54.60;;;19.70;;
50779;SDS011;36748;37.428;-121.972;2023-03-31T04:10:00;53.65;;;19.73;;
50779;SDS011;36748;37.428;-121.972;2023-03-31T04:12:28;52.42;;;20.40;;
50779;SDS011;36748;37.428;-121.972;2023-03-31T04:14:54;52.25;;;18.85;;
50779;SDS011;36748;37.428;-121.972;2023-03-31T04:17:22;48.63;;;18.48;;
50779;SDS011;36748;37.428;-121.972;2023-03-31T04:19:58;43.40;;;17.33;;
50779;SDS011;36748;37.428;-121.972;2023-03-31T04:22:32;49.27;;;18.90;;
50779;SDS011;36748;37.428;-121.972;2023-03-31T04:25:09;45.83;;;17.65;;
50779;SDS011;36748;37.428;-121.972;2023-03-31T04:27:45;47.55;;;17.38;;
50779;SDS011;36748;37.428;-121.972;2023-03-31T04:30:25;42.75;;;16.77;;
50779;SDS011;36748;37.428;-121.972;2023-03-31T04:32:59;43.40;;;17.00;;
50779;SDS011;36748;37.428;-121.972;2023-03-31T04:35:29;40.97;;;16.42;;
50779;SDS011;36748;37.428;-121.972;2023-03-31T04:38:14;38.78;;;15.93;;
50779;SDS011;36748;37.428;-121.972;2023-03-31T04:40:46;39.92;;;15.90;;
50779;SDS011;36748;37.428;-121.972;2023-03-31T04:43:15;42.95;;;16.67;;
50779;SDS011;36748;37.428;-121.972;2023-03-31T04:45:43;37.60;;;14.82;;
50779;SDS011;36748;37.428;-121.972;2023-03-31T04:48:12;42.08;;;15.68;;
50779;SDS011;36748;37.428;-121.972;2023-03-31T04:50:40;38.80;;;14.90;;
50779;SDS011;36748;37.428;-121.972;2023-03-31T04:53:06;35.53;;;14.90;;
50779;SDS011;36748;37.428;-121.972;2023-03-31T04:55:35;37.50;;;15.15;;
50779;SDS011;36748;37.428;-121.972;2023-03-31T04:58:02;37.35;;;14.40;;
50779;SDS011;36748;37.428;-121.972;2023-03-31T05:00:30;42.83;;;15.52;;
50779;SDS011;36748;37.428;-121.972;2023-03-31T05:02:56;35.47;;;14.35;;
50779;SDS011;36748;37.428;-121.972;2023-03-31T05:05:24;40.33;;;13.82;;
50779;SDS011;36748;37.428;-121.972;2023-03-31T05:07:51;35.15;;;13.13;;
50779;SDS011;36748;37.428;-121.972;2023-03-31T05:10:17;36.83;;;14.00;;
50779;SDS011;36748;37.428;-121.972;2023-03-31T05:12:44;44.10;;;14.27;;
50779;SDS011;36748;37.428;-121.972;2023-03-31T05:15:11;34.47;;;13.40;;
50779;SDS011;36748;37.428;-121.972;2023-03-31T05:17:38;31.70;;;13.23;;
50779;SDS011;36748;37.428;-121.972;2023-03-31T05:20:06;30.65;;;12.82;;
50779;SDS011;36748;37.428;-121.972;2023-03-31T05:22:34;39.47;;;14.35;;
50779;SDS011;36748;37.428;-121.972;2023-03-31T05:25:03;29.02;;;12.75;;
50779;SDS011;36748;37.428;-121.972;2023-03-31T05:27:31;31.85;;;12.88;;
50779;SDS011;36748;37.428;-121.972;2023-03-31T05:29:58;31.83;;;12.23;;
50779;SDS011;36748;37.428;-121.972;2023-03-31T05:32:25;28.98;;;11.93;;
50779;SDS011;36748;37.428;-121.972;2023-03-31T05:34:52;27.38;;;11.48;;
50779;SDS011;36748;37.428;-121.972;2023-03-31T05:37:22;29.25;;;11.68;;
50779;SDS011;36748;37.428;-121.972;2023-03-31T05:39:50;30.20;;;12.45;;
50779;SDS011;36748;37.428;-121.972;2023-03-31T05:42:18;29.73;;;12.05;;
50779;SDS011;36748;37.428;-121.972;2023-03-31T05:44:45;27.30;;;11.20;;
50779;SDS011;36748;37.428;-121.972;2023-03-31T05:47:11;28.85;;;11.55;;
50779;SDS011;36748;37.428;-121.972;2023-03-31T05:49:39;27.30;;;11.50;;
50779;SDS011;36748;37.428;-121.972;2023-03-31T05:52:06;26.50;;;10.85;;
50779;SDS011;36748;37.428;-121.972;2023-03-31T05:54:32;30.60;;;11.57;;
50779;SDS011;36748;37.428;-121.972;2023-03-31T05:56:59;29.27;;;10.98;;
50779;SDS011;36748;37.428;-121.972;2023-03-31T05:59:26;27.45;;;11.27;;
50779;SDS011;36748;37.428;-121.972;2023-03-31T06:01:52;26.75;;;11.23;;
50779;SDS011;36748;37.428;-121.972;2023-03-31T06:04:18;24.55;;;10.88;;
50779;SDS011;36748;37.428;-121.972;2023-03-31T06:06:44;26.98;;;11.02;;
50779;SDS011;36748;37.428;-121.972;2023-03-31T06:09:14;25.33;;;10.48;;
50779;SDS011;36748;37.428;-121.972;2023-03-31T06:11:42;21.42;;;9.80;;
50779;SDS011;36748;37.428;-121.972;2023-03-31T06:14:10;20.35;;;10.15;;
50779;SDS011;36748;37.428;-121.972;2023-03-31T06:16:37;24.10;;;10.30;;
50779;SDS011;36748;37.428;-121.972;2023-03-31T06:19:05;25.40;;;10.15;;
50779;SDS011;36748;37.428;-121.972;2023-03-31T06:21:32;25.63;;;9.40;;
50779;SDS011;36748;37.428;-121.972;2023-03-31T06:23:59;22.77;;;9.95;;
50779;SDS011;36748;37.428;-121.972;2023-03-31T06:26:26;23.17;;;9.25;;
50779;SDS011;36748;37.428;-121.972;2023-03-31T06:28:53;22.48;;;10.18;;
50779;SDS011;36748;37.428;-121.972;2023-03-31T06:31:21;22.92;;;9.63;;
50779;SDS011;36748;37.428;-121.972;2023-03-31T06:33:49;20.77;;;9.10;;
50779;SDS011;36748;37.428;-121.972;2023-03-31T06:36:17;19.55;;;9.13;;
50779;SDS011;36748;37.428;-121.972;2023-03-31T06:38:45;21.67;;;9.93;;
50779;SDS011;36748;37.428;-121.972;2023-03-31T06:41:12;19.33;;;8.95;;
50779;SDS011;36748;37.428;-121.972;2023-03-31T06:43:41;16.80;;;8.13;;
50779;SDS011;36748;37.428;-121.972;2023-03-31T06:46:09;24.17;;;9.38;;
50779;SDS011;36748;37.428;-121.972;2023-03-31T06:48:35;19.48;;;8.43;;
50779;SDS011;36748;37.428;-121.972;2023-03-31T06:51:02;19.98;;;8.85;;
50779;SDS011;36748;37.428;-121.972;2023-03-31T06:53:30;20.83;;;8.98;;
50779;SDS011;36748;37.428;-121.972;2023-03-31T06:55:57;20.02;;;8.35;;
50779;SDS011;36748;37.428;-121.972;2023-03-31T06:58:23;18.90;;;8.93;;
50779;SDS011;36748;37.428;-121.972;2023-03-31T07:00:50;21.40;;;9.15;;
50779;SDS011;36748;37.428;-121.972;2023-03-31T07:03:19;17.50;;;8.30;;
50779;SDS011;36748;37.428;-121.972;2023-03-31T07:05:47;16.77;;;7.93;;
50779;SDS011;36748;37.428;-121.972;2023-03-31T07:08:16;18.77;;;8.30;;
50779;SDS011;36748;37.428;-121.972;2023-03-31T07:10:42;14.27;;;8.10;;
50779;SDS011;36748;37.428;-121.972;2023-03-31T07:13:14;18.52;;;8.45;;
50779;SDS011;36748;37.428;-121.972;2023-03-31T07:15:41;17.80;;;7.75;;
50779;SDS011;36748;37.428;-121.972;2023-03-31T07:18:07;16.52;;;8.00;;
50779;SDS011;36748;37.428;-121.972;2023-03-31T07:20:34;19.45;;;8.35;;
50779;SDS011;36748;37.428;-121.972;2023-03-31T07:23:03;16.80;;;8.38;;
50779;SDS011;36748;37.428;-121.972;2023-03-31T07:25:30;17.63;;;7.57;;
50779;SDS011;36748;37.428;-121.972;2023-03-31T07:27:56;16.33;;;7.80;;
50779;SDS011;36748;37.428;-121.972;2023-03-31T07:30:23;17.15;;;7.88;;
50779;SDS011;36748;37.428;-121.972;2023-03-31T07:32:50;16.42;;;7.95;;
50779;SDS011;36748;37.428;-121.972;2023-03-31T07:35:33;17.10;;;7.75;;
50779;SDS011;36748;37.428;-121.972;2023-03-31T07:38:04;15.85;;;8.38;;
50779;SDS011;36748;37.428;-121.972;2023-03-31T07:40:30;16.45;;;7.68;;
50779;SDS011;36748;37.428;-121.972;2023-03-31T07:42:56;15.35;;;7.40;;
50779;SDS011;36748;37.428;-121.972;2023-03-31T07:45:24;14.60;;;7.30;;
50779;SDS011;36748;37.428;-121.972;2023-03-31T07:47:50;14.73;;;7.57;;
50779;SDS011;36748;37.428;-121.972;2023-03-31T07:50:18;16.05;;;7.47;;
50779;SDS011;36748;37.428;-121.972;2023-03-31T07:52:45;15.27;;;7.32;;
50779;SDS011;36748;37.428;-121.972;2023-03-31T07:55:12;16.42;;;7.43;;
50779;SDS011;36748;37.428;-121.972;2023-03-31T07:57:38;13.00;;;7.28;;
50779;SDS011;36748;37.428;-121.972;2023-03-31T08:00:05;13.57;;;7.13;;
50779;SDS011;36748;37.428;-121.972;2023-03-31T08:02:33;13.27;;;7.25;;
50779;SDS011;36748;37.428;-121.972;2023-03-31T08:05:00;14.50;;;6.88;;
50779;SDS011;36748;37.428;-121.972;2023-03-31T08:07:27;14.80;;;6.97;;
50779;SDS011;36748;37.428;-121.972;2023-03-31T08:09:55;14.60;;;7.18;;
50779;SDS011;36748;37.428;-121.972;2023-03-31T08:12:22;12.45;;;6.45;;
50779;SDS011;36748;37.428;-121.972;2023-03-31T08:14:49;13.95;;;7.10;;
50779;SDS011;36748;37.428;-121.972;2023-03-31T08:17:15;12.93;;;6.97;;
50779;SDS011;36748;37.428;-121.972;2023-03-31T08:19:42;13.43;;;6.95;;
50779;SDS011;36748;37.428;-121.972;2023-03-31T08:22:09;12.80;;;6.82;;
50779;SDS011;36748;37.428;-121.972;2023-03-31T08:24:35;11.60;;;6.45;;
50779;SDS011;36748;37.428;-121.972;2023-03-31T08:27:01;13.88;;;7.38;;
50779;SDS011;36748;37.428;-121.972;2023-03-31T08:29:28;12.38;;;6.50;;
50779;SDS011;36748;37.428;-121.972;2023-03-31T08:31:54;12.05;;;6.65;;
50779;SDS011;36748;37.428;-121.972;2023-03-31T08:34:20;12.70;;;6.05;;
50779;SDS011;36748;37.428;-121.972;2023-03-31T08:36:47;11.38;;;5.90;;
50779;SDS011;36748;37.428;-121.972;2023-03-31T08:39:13;10.93;;;6.28;;
50779;SDS011;36748;37.428;-121.972;2023-03-31T08:44:29;11.60;;;6.18;;
50779;SDS011;36748;37.428;-121.972;2023-03-31T08:47:00;11.43;;;6.05;;
50779;SDS011;36748;37.428;-121.972;2023-03-31T08:49:30;10.90;;;5.70;;
50779;SDS011;36748;37.428;-121.972;2023-03-31T08:52:04;9.68;;;5.53;;
50779;SDS011;36748;37.428;-121.972;2023-03-31T08:54:39;10.18;;;5.88;;
50779;SDS011;36748;37.428;-121.972;2023-03-31T08:57:21;12.38;;;6.60;;
50779;SDS011;36748;37.428;-121.972;2023-03-31T08:59:51;11.55;;;5.90;;
50779;SDS011;36748;37.428;-121.972;2023-03-31T09:02:28;11.63;;;6.03;;
50779;SDS011;36748;37.428;-121.972;2023-03-31T09:05:25;9.88;;;5.80;;
50779;SDS011;36748;37.428;-121.972;2023-03-31T09:19:02;9.65;;;5.25;;
50779;SDS011;36748;37.428;-121.972;2023-03-31T09:21:34;9.93;;;5.75;;
50779;SDS011;36748;37.428;-121.972;2023-03-31T09:24:18;10.20;;;5.50;;
50779;SDS011;36748;37.428;-121.972;2023-03-31T09:27:00;10.05;;;5.70;;
50779;SDS011;36748;37.428;-121.972;2023-03-31T09:29:40;7.68;;;5.07;;
50779;SDS011;36748;37.428;-121.972;2023-03-31T09:32:22;9.10;;;5.05;;
50779;SDS011;36748;37.428;-121.972;2023-03-31T09:35:00;8.02;;;4.63;;
50779;SDS011;36748;37.428;-121.972;2023-03-31T09:37:37;8.10;;;4.75;;
50779;SDS011;36748;37.428;-121.972;2023-03-31T09:40:04;8.38;;;5.32;;
50779;SDS011;36748;37.428;-121.972;2023-03-31T09:42:36;7.00;;;4.68;;
50779;SDS011;36748;37.428;-121.972;2023-03-31T09:45:03;8.73;;;5.07;;
50779;SDS011;36748;37.428;-121.972;2023-03-31T09:48:03;9.52;;;5.10;;
50779;SDS011;36748;37.428;-121.972;2023-03-31T09:50:22;7.35;;;4.40;;
50779;SDS011;36748;37.428;-121.972;2023-03-31T09:52:53;9.63;;;4.95;;
50779;SDS011;36748;37.428;-121.972;2023-03-31T09:58:02;9.38;;;4.70;;
50779;SDS011;36748;37.428;-121.972;2023-03-31T10:00:32;8.68;;;5.00;;
50779;SDS011;36748;37.428;-121.972;2023-03-31T10:03:02;9.80;;;4.63;;
50779;SDS011;36748;37.428;-121.972;2023-03-31T10:05:33;6.93;;;4.40;;
50779;SDS011;36748;37.428;-121.972;2023-03-31T10:10:53;9.95;;;4.20;;
50779;SDS011;36748;37.428;-121.972;2023-03-31T10:16:26;6.93;;;3.90;;
50779;SDS011;36748;37.428;-121.972;2023-03-31T10:19:10;7.15;;;4.70;;
50779;SDS011;36748;37.428;-121.972;2023-03-31T10:21:38;8.15;;;4.43;;
50779;SDS011;36748;37.428;-121.972;2023-03-31T10:24:08;7.03;;;4.32;;
50779;SDS011;36748;37.428;-121.972;2023-03-31T10:26:35;8.13;;;4.22;;
50779;SDS011;36748;37.428;-121.972;2023-03-31T10:29:08;8.13;;;4.70;;
50779;SDS011;36748;37.428;-121.972;2023-03-31T10:31:36;8.48;;;4.50;;
50779;SDS011;36748;37.428;-121.972;2023-03-31T10:34:11;8.38;;;5.00;;
50779;SDS011;36748;37.428;-121.972;2023-03-31T10:36:47;6.78;;;3.92;;
50779;SDS011;36748;37.428;-121.972;2023-03-31T10:39:16;12.65;;;4.30;;
50779;SDS011;36748;37.428;-121.972;2023-03-31T10:41:48;6.65;;;4.10;;
50779;SDS011;36748;37.428;-121.972;2023-03-31T10:44:31;7.00;;;4.25;;
50779;SDS011;36748;37.428;-121.972;2023-03-31T10:47:05;7.28;;;3.97;;
50779;SDS011;36748;37.428;-121.972;2023-03-31T10:49:42;6.72;;;3.55;;
50779;SDS011;36748;37.428;-121.972;2023-03-31T10:52:19;5.32;;;3.88;;
50779;SDS011;36748;37.428;-121.972;2023-03-31T10:54:47;8.18;;;3.97;;
50779;SDS011;36748;37.428;-121.972;2023-03-31T11:00:31;4.65;;;3.35;;
50779;SDS011;36748;37.428;-121.972;2023-03-31T11:08:47;6.15;;;3.72;;
50779;SDS011;36748;37.428;-121.972;2023-03-31T11:14:34;6.53;;;4.22;;
50779;SDS011;36748;37.428;-121.972;2023-03-31T11:19:51;6.20;;;3.85;;
50779;SDS011;36748;37.428;-121.972;2023-03-31T11:22:41;5.22;;;3.30;;
50779;SDS011;36748;37.428;-121.972;2023-03-31T11:25:32;6.47;;;3.67;;
50779;SDS011;36748;37.428;-121.972;2023-03-31T11:39:15;6.30;;;3.47;;
50779;SDS011;36748;37.428;-121.972;2023-03-31T11:41:49;5.53;;;3.67;;
50779;SDS011;36748;37.428;-121.972;2023-03-31T11:44:18;5.03;;;3.33;;
50779;SDS011;36748;37.428;-121.972;2023-03-31T11:47:06;4.10;;;3.10;;
50779;SDS011;36748;37.428;-121.972;2023-03-31T11:49:34;7.32;;;4.10;;
50779;SDS011;36748;37.428;-121.972;2023-03-31T11:52:16;5.68;;;3.47;;
50779;SDS011;36748;37.428;-121.972;2023-03-31T12:00:16;4.45;;;3.05;;
50779;SDS011;36748;37.428;-121.972;2023-03-31T12:02:56;4.30;;;2.83;;
50779;SDS011;36748;37.428;-121.972;2023-03-31T12:06:02;6.60;;;3.30;;
50779;SDS011;36748;37.428;-121.972;2023-03-31T12:08:36;5.18;;;3.22;;
50779;SDS011;36748;37.428;-121.972;2023-03-31T12:11:10;6.20;;;2.95;;
50779;SDS011;36748;37.428;-121.972;2023-03-31T12:16:22;3.95;;;2.80;;
50779;SDS011;36748;37.428;-121.972;2023-03-31T12:18:56;4.32;;;3.10;;
50779;SDS011;36748;37.428;-121.972;2023-03-31T12:21:42;4.20;;;2.65;;
50779;SDS011;36748;37.428;-121.972;2023-03-31T12:24:12;7.13;;;3.70;;
50779;SDS011;36748;37.428;-121.972;2023-03-31T12:32:05;6.13;;;3.28;;
50779;SDS011;36748;37.428;-121.972;2023-03-31T12:34:38;4.97;;;2.90;;
50779;SDS011;36748;37.428;-121.972;2023-03-31T12:37:28;4.63;;;3.17;;
50779;SDS011;36748;37.428;-121.972;2023-03-31T12:42:55;5.63;;;2.55;;
50779;SDS011;36748;37.428;-121.972;2023-03-31T12:45:38;4.65;;;2.78;;
50779;SDS011;36748;37.428;-121.972;2023-03-31T12:54:33;2.38;;;2.00;;
50779;SDS011;36748;37.428;-121.972;2023-03-31T12:59:35;2.25;;;2.00;;
50779;SDS011;36748;37.428;-121.972;2023-03-31T13:04:35;3.90;;;2.10;;
50779;SDS011;36748;37.428;-121.972;2023-03-31T13:07:02;3.05;;;1.90;;
50779;SDS011;36748;37.428;-121.972;2023-03-31T13:12:17;5.93;;;2.38;;
50779;SDS011;36748;37.428;-121.972;2023-03-31T13:14:46;2.50;;;1.92;;
50779;SDS011;36748;37.428;-121.972;2023-03-31T13:17:19;2.70;;;2.03;;
50779;SDS011;36748;37.428;-121.972;2023-03-31T13:19:49;2.22;;;1.70;;
50779;SDS011;36748;37.428;-121.972;2023-03-31T13:22:32;2.42;;;1.52;;
50779;SDS011;36748;37.428;-121.972;2023-03-31T13:27:58;2.05;;;1.50;;
50779;SDS011;36748;37.428;-121.972;2023-03-31T13:35:36;6.53;;;1.67;;
50779;SDS011;36748;37.428;-121.972;2023-03-31T13:40:55;4.05;;;1.67;;
50779;SDS011;36748;37.428;-121.972;2023-03-31T13:43:39;5.10;;;1.85;;
50779;SDS011;36748;37.428;-121.972;2023-03-31T13:52:10;4.35;;;1.70;;
50779;SDS011;36748;37.428;-121.972;2023-03-31T13:57:39;1.90;;;1.45;;
50779;SDS011;36748;37.428;-121.972;2023-03-31T14:03:28;1.92;;;1.48;;
50779;SDS011;36748;37.428;-121.972;2023-03-31T14:09:09;2.25;;;1.60;;
50779;SDS011;36748;37.428;-121.972;2023-03-31T14:11:37;2.60;;;1.50;;
50779;SDS011;36748;37.428;-121.972;2023-03-31T14:14:04;2.35;;;1.75;;
50779;SDS011;36748;37.428;-121.972;2023-03-31T14:16:34;2.05;;;1.20;;
50779;SDS011;36748;37.428;-121.972;2023-03-31T14:19:30;1.50;;;1.27;;
50779;SDS011;36748;37.428;-121.972;2023-03-31T14:35:34;2.28;;;1.63;;
50779;SDS011;36748;37.428;-121.972;2023-03-31T14:38:21;2.00;;;1.23;;
50779;SDS011;36748;37.428;-121.972;2023-03-31T14:40:50;1.63;;;1.17;;
50779;SDS011;36748;37.428;-121.972;2023-03-31T14:43:26;1.45;;;1.08;;
50779;SDS011;36748;37.428;-121.972;2023-03-31T14:45:59;1.48;;;1.05;;
50779;SDS011;36748;37.428;-121.972;2023-03-31T14:48:33;1.42;;;1.10;;
50779;SDS011;36748;37.428;-121.972;2023-03-31T14:51:08;1.83;;;1.25;;
50779;SDS011;36748;37.428;-121.972;2023-03-31T14:53:37;1.92;;;1.20;;
50779;SDS011;36748;37.428;-121.972;2023-03-31T14:56:06;1.80;;;1.20;;
50779;SDS011;36748;37.428;-121.972;2023-03-31T14:58:36;1.52;;;1.20;;
50779;SDS011;36748;37.428;-121.972;2023-03-31T15:01:05;1.38;;;1.20;;
50779;SDS011;36748;37.428;-121.972;2023-03-31T15:03:33;1.65;;;1.35;;
50779;SDS011;36748;37.428;-121.972;2023-03-31T15:06:02;2.60;;;1.23;;
50779;SDS011;36748;37.428;-121.972;2023-03-31T15:08:29;1.75;;;1.10;;
50779;SDS011;36748;37.428;-121.972;2023-03-31T15:11:01;1.08;;;0.90;;
50779;SDS011;36748;37.428;-121.972;2023-03-31T15:13:36;1.33;;;1.00;;
50779;SDS011;36748;37.428;-121.972;2023-03-31T15:21:56;1.85;;;1.00;;
50779;SDS011;36748;37.428;-121.972;2023-03-31T15:24:27;2.00;;;1.25;;
50779;SDS011;36748;37.428;-121.972;2023-03-31T15:27:02;1.63;;;0.98;;
50779;SDS011;36748;37.428;-121.972;2023-03-31T15:29:50;0.90;;;0.80;;
50779;SDS011;36748;37.428;-121.972;2023-03-31T15:32:30;1.00;;;0.90;;
50779;SDS011;36748;37.428;-121.972;2023-03-31T15:35:00;1.52;;;1.10;;
50779;SDS011;36748;37.428;-121.972;2023-03-31T15:37:30;1.60;;;1.20;;
50779;SDS011;36748;37.428;-121.972;2023-03-31T15:40:08;5.70;;;1.38;;
50779;SDS011;36748;37.428;-121.972;2023-03-31T15:42:58;1.98;;;1.02;;
50779;SDS011;36748;37.428;-121.972;2023-03-31T15:48:36;3.25;;;1.10;;
50779;SDS011;36748;37.428;-121.972;2023-03-31T15:53:43;2.63;;;1.42;;
50779;SDS011;36748;37.428;-121.972;2023-03-31T15:56:27;4.60;;;1.45;;
50779;SDS011;36748;37.428;-121.972;2023-03-31T15:58:59;3.03;;;1.15;;
50779;SDS011;36748;37.428;-121.972;2023-03-31T16:01:41;2.13;;;1.40;;
50779;SDS011;36748;37.428;-121.972;2023-03-31T16:04:11;2.90;;;1.70;;
50779;SDS011;36748;37.428;-121.972;2023-03-31T16:06:48;2.42;;;1.42;;
50779;SDS011;36748;37.428;-121.972;2023-03-31T16:09:20;2.55;;;1.20;;
50779;SDS011;36748;37.428;-121.972;2023-03-31T16:12:04;4.93;;;1.40;;
50779;SDS011;36748;37.428;-121.972;2023-03-31T16:14:51;2.50;;;1.27;;
50779;SDS011;36748;37.428;-121.972;2023-03-31T16:17:23;2.17;;;1.17;;
50779;SDS011;36748;37.428;-121.972;2023-03-31T16:19:53;3.85;;;1.15;;
50779;SDS011;36748;37.428;-121.972;2023-03-31T16:22:25;2.25;;;1.20;;
50779;SDS011;36748;37.428;-121.972;2023-03-31T16:24:55;1.70;;;1.00;;
50779;SDS011;36748;37.428;-121.972;2023-03-31T16:27:23;3.78;;;1.17;;
50779;SDS011;36748;37.428;-121.972;2023-03-31T16:29:49;6.72;;;1.35;;
50779;SDS011;36748;37.428;-121.972;2023-03-31T16:32:17;2.65;;;1.30;;
50779;SDS011;36748;37.428;-121.972;2023-03-31T16:34:51;5.90;;;1.20;;
50779;SDS011;36748;37.428;-121.972;2023-03-31T16:42:13;4.32;;;1.20;;
50779;SDS011;36748;37.428;-121.972;2023-03-31T16:44:39;1.33;;;1.00;;
50779;SDS011;36748;37.428;-121.972;2023-03-31T16:47:06;3.97;;;1.10;;
50779;SDS011;36748;37.428;-121.972;2023-03-31T16:49:32;1.52;;;1.02;;
50779;SDS011;36748;37.428;-121.972;2023-03-31T16:51:59;1.95;;;0.90;;
50779;SDS011;36748;37.428;-121.972;2023-03-31T16:54:26;2.88;;;1.17;;
50779;SDS011;36748;37.428;-121.972;2023-03-31T16:56:52;4.22;;;1.20;;
50779;SDS011;36748;37.428;-121.972;2023-03-31T16:59:18;2.47;;;1.20;;
50779;SDS011;36748;37.428;-121.972;2023-03-31T17:01:45;1.92;;;1.05;;
50779;SDS011;36748;37.428;-121.972;2023-03-31T17:04:12;4.28;;;1.08;;
50779;SDS011;36748;37.428;-121.972;2023-03-31T17:06:38;2.00;;;1.08;;
50779;SDS011;36748;37.428;-121.972;2023-03-31T17:09:05;2.00;;;0.98;;
50779;SDS011;36748;37.428;-121.972;2023-03-31T17:11:31;1.80;;;1.00;;
50779;SDS011;36748;37.428;-121.972;2023-03-31T17:13:57;2.20;;;1.10;;
50779;SDS011;36748;37.428;-121.972;2023-03-31T17:16:24;5.13;;;1.00;;
50779;SDS011;36748;37.428;-121.972;2023-03-31T17:18:51;3.85;;;1.58;;
50779;SDS011;36748;37.428;-121.972;2023-03-31T17:21:17;2.08;;;1.20;;
50779;SDS011;36748;37.428;-121.972;2023-03-31T17:23:50;2.63;;;1.30;;
50779;SDS011;36748;37.428;-121.972;2023-03-31T17:26:16;4.72;;;1.27;;
50779;SDS011;36748;37.428;-121.972;2023-03-31T17:28:43;2.40;;;1.40;;
50779;SDS011;36748;37.428;-121.972;2023-03-31T17:31:16;1.55;;;1.02;;
50779;SDS011;36748;37.428;-121.972;2023-03-31T17:33:44;2.35;;;1.00;;